sensor_id;sensor_type;location;lat;lon;timestamp;pressure;altitude;pressure_sealevel;temperature;humidity
71938;BME280;59810;48.800;9.086;2023-02-13T00:01:59;99558.41;;;0.23;93.84
71938;BME280;59810;48.800;9.086;2023-02-13T00:04:24;99552.53;;;0.19;94.86
71938;BME280;59810;48.800;9.086;2023-02-13T00:06:52;99552.81;;;0.16;95.08
71938;BME280;59810;48.800;9.086;2023-02-13T00:09:17;99551.84;;;0.17;94.73
71938;BME280;59810;48.800;9.086;2023-02-13T00:11:43;99558.56;;;0.21;94.92
71938;BME280;59810;48.800;9.086;2023-02-13T00:14:10;99550.88;;;0.18;94.75
71938;BME280;59810;48.800;9.086;2023-02-13T00:16:36;99551.16;;;0.25;94.64
71938;BME280;59810;48.800;9.086;2023-02-13T00:19:01;99544.19;;;0.34;96.24
71938;BME280;59810;48.800;9.086;2023-02-13T00:21:26;99543.88;;;0.27;95.22
71938;BME280;59810;48.800;9.086;2023-02-13T00:23:52;99553.53;;;0.18;94.94
71938;BME280;59810;48.800;9.086;2023-02-13T00:26:19;99547.50;;;0.16;94.97
71938;BME280;59810;48.800;9.086;2023-02-13T00:28:47;99543.31;;;0.14;94.56
71938;BME280;59810;48.800;9.086;2023-02-13T00:31:15;99542.47;;;0.13;94.82
71938;BME280;59810;48.800;9.086;2023-02-13T00:33:40;99540.53;;;0.15;95.40
71938;BME280;59810;48.800;9.086;2023-02-13T00:36:09;99542.47;;;0.13;95.14
71938;BME280;59810;48.800;9.086;2023-02-13T00:38:36;99538.00;;;0.04;93.84
71938;BME280;59810;48.800;9.086;2023-02-13T00:41:02;99541.47;;;0.05;95.50
71938;BME280;59810;48.800;9.086;2023-02-13T00:43:27;99540.91;;;0.01;95.02
71938;BME280;59810;48.800;9.086;2023-02-13T00:45:53;99547.72;;;-0.06;94.72
71938;BME280;59810;48.800;9.086;2023-02-13T00:48:18;99546.88;;;-0.07;95.14
71938;BME280;59810;48.800;9.086;2023-02-13T00:50:46;99551.50;;;-0.09;95.29
71938;BME280;59810;48.800;9.086;2023-02-13T00:53:12;99548.56;;;-0.06;95.68
71938;BME280;59810;48.800;9.086;2023-02-13T00:55:37;99552.59;;;-0.11;94.69
71938;BME280;59810;48.800;9.086;2023-02-13T00:58:03;99550.25;;;-0.05;95.84
71938;BME280;59810;48.800;9.086;2023-02-13T01:00:28;99546.66;;;0.06;97.17
71938;BME280;59810;48.800;9.086;2023-02-13T01:02:56;99545.50;;;-0.01;96.27
71938;BME280;59810;48.800;9.086;2023-02-13T01:05:21;99545.78;;;-0.04;95.95
71938;BME280;59810;48.800;9.086;2023-02-13T01:07:46;99542.41;;;-0.06;95.61
71938;BME280;59810;48.800;9.086;2023-02-13T01:10:14;99542.53;;;-0.17;94.54
71938;BME280;59810;48.800;9.086;2023-02-13T01:12:42;99534.84;;;-0.20;93.33
71938;BME280;59810;48.800;9.086;2023-02-13T01:15:10;99538.88;;;-0.26;94.68
71938;BME280;59810;48.800;9.086;2023-02-13T01:17:35;99538.75;;;-0.24;95.99
71938;BME280;59810;48.800;9.086;2023-02-13T01:20:05;99544.31;;;-0.27;95.01
71938;BME280;59810;48.800;9.086;2023-02-13T01:22:33;99537.91;;;-0.25;95.63
71938;BME280;59810;48.800;9.086;2023-02-13T01:24:58;99539.28;;;-0.30;95.07
71938;BME280;59810;48.800;9.086;2023-02-13T01:27:24;99533.25;;;-0.33;95.97
71938;BME280;59810;48.800;9.086;2023-02-13T01:29:49;99535.19;;;-0.35;94.77
71938;BME280;59810;48.800;9.086;2023-02-13T01:32:15;99534.47;;;-0.37;94.64
71938;BME280;59810;48.800;9.086;2023-02-13T01:34:40;99531.81;;;-0.37;95.40
71938;BME280;59810;48.800;9.086;2023-02-13T01:37:06;99531.38;;;-0.42;95.35
71938;BME280;59810;48.800;9.086;2023-02-13T01:39:34;99524.53;;;-0.44;94.01
71938;BME280;59810;48.800;9.086;2023-02-13T01:42:02;99521.31;;;-0.48;93.98
71938;BME280;59810;48.800;9.086;2023-02-13T01:44:49;99521.44;;;-0.49;94.72
71938;BME280;59810;48.800;9.086;2023-02-13T01:47:24;99523.81;;;-0.56;94.86
71938;BME280;59810;48.800;9.086;2023-02-13T01:49:58;99529.09;;;-0.56;95.35
71938;BME280;59810;48.800;9.086;2023-02-13T01:52:26;99527.88;;;-0.52;94.98
71938;BME280;59810;48.800;9.086;2023-02-13T01:54:52;99525.75;;;-0.58;95.12
71938;BME280;59810;48.800;9.086;2023-02-13T01:57:20;99534.41;;;-0.56;96.11
71938;BME280;59810;48.800;9.086;2023-02-13T01:59:51;99530.34;;;-0.60;95.95
71938;BME280;59810;48.800;9.086;2023-02-13T02:02:18;99524.06;;;-0.59;96.13
71938;BME280;59810;48.800;9.086;2023-02-13T02:04:46;99525.75;;;-0.58;96.41
71938;BME280;59810;48.800;9.086;2023-02-13T02:07:17;99526.31;;;-0.54;96.66
71938;BME280;59810;48.800;9.086;2023-02-13T02:09:44;99525.06;;;-0.50;96.49
71938;BME280;59810;48.800;9.086;2023-02-13T02:12:26;99533.16;;;-0.52;96.21
71938;BME280;59810;48.800;9.086;2023-02-13T02:14:55;99533.59;;;-0.47;96.15
71938;BME280;59810;48.800;9.086;2023-02-13T02:17:24;99535.44;;;-0.38;96.50
71938;BME280;59810;48.800;9.086;2023-02-13T02:20:03;99536.69;;;-0.42;94.69
71938;BME280;59810;48.800;9.086;2023-02-13T02:25:49;99532.03;;;-0.59;95.14
71938;BME280;59810;48.800;9.086;2023-02-13T02:28:41;99526.00;;;-0.61;95.63
71938;BME280;59810;48.800;9.086;2023-02-13T02:37:04;99522.59;;;-0.73;95.56
71938;BME280;59810;48.800;9.086;2023-02-13T02:47:55;99513.75;;;-0.83;95.72
71938;BME280;59810;48.800;9.086;2023-02-13T02:53:25;99510.25;;;-0.83;95.45
71938;BME280;59810;48.800;9.086;2023-02-13T02:56:01;99514.59;;;-0.82;95.44
71938;BME280;59810;48.800;9.086;2023-02-13T02:58:37;99520.91;;;-0.74;95.80
71938;BME280;59810;48.800;9.086;2023-02-13T03:01:28;99517.22;;;-0.61;96.28
71938;BME280;59810;48.800;9.086;2023-02-13T03:04:18;99525.53;;;-0.66;95.25
71938;BME280;59810;48.800;9.086;2023-02-13T03:07:08;99521.47;;;-0.70;95.53
71938;BME280;59810;48.800;9.086;2023-02-13T03:09:39;99521.75;;;-0.73;95.29
71938;BME280;59810;48.800;9.086;2023-02-13T03:12:29;99528.28;;;-0.77;95.48
71938;BME280;59810;48.800;9.086;2023-02-13T03:15:16;99523.94;;;-0.78;95.75
71938;BME280;59810;48.800;9.086;2023-02-13T03:17:42;99525.31;;;-0.84;94.78
71938;BME280;59810;48.800;9.086;2023-02-13T03:20:35;99512.91;;;-0.83;94.91
71938;BME280;59810;48.800;9.086;2023-02-13T03:23:43;99526.88;;;-0.81;94.18
71938;BME280;59810;48.800;9.086;2023-02-13T03:28:52;99534.19;;;-0.95;94.72
71938;BME280;59810;48.800;9.086;2023-02-13T03:31:51;99519.25;;;-0.96;95.51
71938;BME280;59810;48.800;9.086;2023-02-13T03:34:29;99524.31;;;-0.92;94.16
71938;BME280;59810;48.800;9.086;2023-02-13T03:37:26;99522.63;;;-0.93;93.50
71938;BME280;59810;48.800;9.086;2023-02-13T03:40:16;99527.72;;;-1.02;94.51
71938;BME280;59810;48.800;9.086;2023-02-13T03:42:47;99535.78;;;-1.03;94.59
71938;BME280;59810;48.800;9.086;2023-02-13T03:45:21;99534.94;;;-1.04;95.52
71938;BME280;59810;48.800;9.086;2023-02-13T03:48:08;99537.59;;;-1.04;96.06
71938;BME280;59810;48.800;9.086;2023-02-13T03:50:55;99532.56;;;-1.07;95.00
71938;BME280;59810;48.800;9.086;2023-02-13T03:53:21;99533.28;;;-1.05;95.45
71938;BME280;59810;48.800;9.086;2023-02-13T03:55:49;99538.56;;;-1.05;94.45
71938;BME280;59810;48.800;9.086;2023-02-13T03:58:37;99541.94;;;-1.03;95.48
71938;BME280;59810;48.800;9.086;2023-02-13T04:01:30;99540.25;;;-1.04;94.38
71938;BME280;59810;48.800;9.086;2023-02-13T04:04:06;99551.56;;;-1.02;94.88
71938;BME280;59810;48.800;9.086;2023-02-13T04:09:07;99559.38;;;-1.00;94.04
71938;BME280;59810;48.800;9.086;2023-02-13T04:11:39;99561.47;;;-1.04;93.95
71938;BME280;59810;48.800;9.086;2023-02-13T04:14:14;99566.88;;;-1.05;94.57
71938;BME280;59810;48.800;9.086;2023-02-13T04:16:46;99566.88;;;-1.05;95.29
71938;BME280;59810;48.800;9.086;2023-02-13T04:19:14;99568.56;;;-1.04;94.93
71938;BME280;59810;48.800;9.086;2023-02-13T04:21:40;99573.03;;;-1.05;94.55
71938;BME280;59810;48.800;9.086;2023-02-13T04:24:06;99564.09;;;-1.04;94.40
71938;BME280;59810;48.800;9.086;2023-02-13T04:26:38;99565.78;;;-1.03;94.52
71938;BME280;59810;48.800;9.086;2023-02-13T04:29:06;99564.81;;;-1.02;94.39
71938;BME280;59810;48.800;9.086;2023-02-13T04:31:31;99568.19;;;-1.00;94.71
71938;BME280;59810;48.800;9.086;2023-02-13T04:33:59;99563.97;;;-1.02;93.75
71938;BME280;59810;48.800;9.086;2023-02-13T04:36:24;99560.75;;;-1.06;93.94
71938;BME280;59810;48.800;9.086;2023-02-13T04:38:52;99559.06;;;-1.07;94.35
71938;BME280;59810;48.800;9.086;2023-02-13T04:41:20;99558.69;;;-1.02;94.28
71938;BME280;59810;48.800;9.086;2023-02-13T04:43:45;99557.97;;;-1.04;93.70
71938;BME280;59810;48.800;9.086;2023-02-13T04:46:10;99563.78;;;-1.10;93.36
71938;BME280;59810;48.800;9.086;2023-02-13T04:48:36;99571.28;;;-1.15;94.45
71938;BME280;59810;48.800;9.086;2023-02-13T04:51:01;99572.50;;;-1.19;94.39
71938;BME280;59810;48.800;9.086;2023-02-13T04:53:26;99578.25;;;-1.14;93.76
71938;BME280;59810;48.800;9.086;2023-02-13T04:55:52;99572.38;;;-1.18;93.80
71938;BME280;59810;48.800;9.086;2023-02-13T04:58:17;99579.28;;;-1.27;94.29
71938;BME280;59810;48.800;9.086;2023-02-13T05:00:43;99580.84;;;-1.24;93.88
71938;BME280;59810;48.800;9.086;2023-02-13T05:03:12;99570.13;;;-1.22;94.84
71938;BME280;59810;48.800;9.086;2023-02-13T05:05:38;99568.19;;;-1.20;94.85
71938;BME280;59810;48.800;9.086;2023-02-13T05:08:07;99571.81;;;-1.21;95.41
71938;BME280;59810;48.800;9.086;2023-02-13T05:10:32;99570.13;;;-1.22;94.01
71938;BME280;59810;48.800;9.086;2023-02-13T05:12:58;99573.88;;;-1.25;94.44
71938;BME280;59810;48.800;9.086;2023-02-13T05:15:25;99569.41;;;-1.24;94.58
71938;BME280;59810;48.800;9.086;2023-02-13T05:17:51;99562.03;;;-1.21;94.34
71938;BME280;59810;48.800;9.086;2023-02-13T05:20:17;99565.28;;;-1.17;95.06
71938;BME280;59810;48.800;9.086;2023-02-13T05:22:43;99569.09;;;-1.10;95.24
71938;BME280;59810;48.800;9.086;2023-02-13T05:25:28;99563.00;;;-1.22;94.45
71938;BME280;59810;48.800;9.086;2023-02-13T05:27:55;99567.47;;;-1.22;94.75
71938;BME280;59810;48.800;9.086;2023-02-13T05:30:21;99562.44;;;-1.26;93.91
71938;BME280;59810;48.800;9.086;2023-02-13T05:32:49;99574.72;;;-1.36;93.94
71938;BME280;59810;48.800;9.086;2023-02-13T05:35:19;99575.13;;;-1.40;94.30
71938;BME280;59810;48.800;9.086;2023-02-13T05:37:45;99579.00;;;-1.44;94.66
71938;BME280;59810;48.800;9.086;2023-02-13T05:40:11;99578.16;;;-1.45;94.90
71938;BME280;59810;48.800;9.086;2023-02-13T05:42:38;99570.91;;;-1.43;95.07
71938;BME280;59810;48.800;9.086;2023-02-13T05:45:04;99575.38;;;-1.43;95.07
71938;BME280;59810;48.800;9.086;2023-02-13T05:47:29;99566.72;;;-1.45;94.60
71938;BME280;59810;48.800;9.086;2023-02-13T05:49:57;99568.97;;;-1.41;94.91
71938;BME280;59810;48.800;9.086;2023-02-13T05:52:22;99566.47;;;-1.42;93.92
71938;BME280;59810;48.800;9.086;2023-02-13T05:54:48;99566.91;;;-1.37;94.45
71938;BME280;59810;48.800;9.086;2023-02-13T05:57:13;99566.47;;;-1.42;94.30
71938;BME280;59810;48.800;9.086;2023-02-13T05:59:38;99567.56;;;-1.45;94.70
71938;BME280;59810;48.800;9.086;2023-02-13T06:02:04;99556.97;;;-1.45;95.28
71938;BME280;59810;48.800;9.086;2023-02-13T06:04:29;99563.56;;;-1.39;95.13
71938;BME280;59810;48.800;9.086;2023-02-13T06:06:54;99568.72;;;-1.38;95.62
71938;BME280;59810;48.800;9.086;2023-02-13T06:09:20;99563.28;;;-1.36;94.56
71938;BME280;59810;48.800;9.086;2023-02-13T06:11:46;99559.28;;;-1.31;94.80
71938;BME280;59810;48.800;9.086;2023-02-13T06:14:11;99553.91;;;-1.29;95.19
71938;BME280;59810;48.800;9.086;2023-02-13T06:16:42;99564.00;;;-1.34;95.21
71938;BME280;59810;48.800;9.086;2023-02-13T06:19:08;99558.44;;;-1.31;94.41
71938;BME280;59810;48.800;9.086;2023-02-13T06:21:33;99562.47;;;-1.37;93.72
71938;BME280;59810;48.800;9.086;2023-02-13T06:24:05;99562.75;;;-1.19;97.25
71938;BME280;59810;48.800;9.086;2023-02-13T06:26:31;99558.44;;;-1.20;96.19
71938;BME280;59810;48.800;9.086;2023-02-13T06:28:56;99565.41;;;-1.19;94.03
71938;BME280;59810;48.800;9.086;2023-02-13T06:31:22;99569.41;;;-1.24;92.16
71938;BME280;59810;48.800;9.086;2023-02-13T06:33:50;99564.25;;;-1.26;93.88
71938;BME280;59810;48.800;9.086;2023-02-13T06:36:15;99564.25;;;-1.26;94.20
71938;BME280;59810;48.800;9.086;2023-02-13T06:38:41;99566.41;;;-1.31;93.87
71938;BME280;59810;48.800;9.086;2023-02-13T06:41:09;99569.78;;;-1.29;94.41
71938;BME280;59810;48.800;9.086;2023-02-13T06:43:35;99566.53;;;-1.33;93.78
71938;BME280;59810;48.800;9.086;2023-02-13T06:46:06;99563.28;;;-1.36;93.31
71938;BME280;59810;48.800;9.086;2023-02-13T06:48:32;99575.31;;;-1.32;93.81
71938;BME280;59810;48.800;9.086;2023-02-13T06:50:57;99574.72;;;-1.36;94.23
71938;BME280;59810;48.800;9.086;2023-02-13T06:53:25;99574.84;;;-1.37;94.41
71938;BME280;59810;48.800;9.086;2023-02-13T06:55:51;99564.59;;;-1.31;94.64
71938;BME280;59810;48.800;9.086;2023-02-13T06:58:18;99568.34;;;-1.33;93.31
71938;BME280;59810;48.800;9.086;2023-02-13T07:00:44;99577.75;;;-1.29;93.77
71938;BME280;59810;48.800;9.086;2023-02-13T07:03:12;99571.47;;;-1.28;93.95
71938;BME280;59810;48.800;9.086;2023-02-13T07:05:41;99570.63;;;-1.29;93.59
71938;BME280;59810;48.800;9.086;2023-02-13T07:08:08;99571.47;;;-1.28;93.61
71938;BME280;59810;48.800;9.086;2023-02-13T07:10:39;99564.69;;;-1.21;93.76
71938;BME280;59810;48.800;9.086;2023-02-13T07:13:05;99577.69;;;-1.18;93.53
71938;BME280;59810;48.800;9.086;2023-02-13T07:15:34;99585.06;;;-1.21;93.36
71938;BME280;59810;48.800;9.086;2023-02-13T07:18:00;99584.22;;;-1.22;93.62
71938;BME280;59810;48.800;9.086;2023-02-13T07:20:28;99584.47;;;-1.25;93.48
71938;BME280;59810;48.800;9.086;2023-02-13T07:23:02;99581.56;;;-1.22;94.17
71938;BME280;59810;48.800;9.086;2023-02-13T07:25:31;99589.25;;;-1.19;93.77
71938;BME280;59810;48.800;9.086;2023-02-13T07:28:05;99585.13;;;-1.12;93.75
71938;BME280;59810;48.800;9.086;2023-02-13T07:30:32;99587.63;;;-1.10;93.58
71938;BME280;59810;48.800;9.086;2023-02-13T07:32:59;99594.38;;;-1.06;93.17
71938;BME280;59810;48.800;9.086;2023-02-13T07:35:27;99591.47;;;-1.03;93.60
71938;BME280;59810;48.800;9.086;2023-02-13T07:37:53;99592.16;;;-1.01;93.38
71938;BME280;59810;48.800;9.086;2023-02-13T07:40:19;99590.13;;;-0.98;93.38
71938;BME280;59810;48.800;9.086;2023-02-13T07:42:44;99593.94;;;-0.90;93.64
71938;BME280;59810;48.800;9.086;2023-02-13T07:45:10;99597.44;;;-0.90;93.28
71938;BME280;59810;48.800;9.086;2023-02-13T07:47:36;99607.19;;;-0.90;93.20
71938;BME280;59810;48.800;9.086;2023-02-13T07:50:02;99602.34;;;-0.85;93.32
71938;BME280;59810;48.800;9.086;2023-02-13T07:52:30;99593.16;;;-0.81;93.21
71938;BME280;59810;48.800;9.086;2023-02-13T07:54:58;99594.56;;;-0.77;93.90
71938;BME280;59810;48.800;9.086;2023-02-13T07:57:25;99595.41;;;-0.77;94.15
71938;BME280;59810;48.800;9.086;2023-02-13T07:59:51;99591.53;;;-0.73;93.90
71938;BME280;59810;48.800;9.086;2023-02-13T08:02:19;99582.16;;;-0.56;95.65
71938;BME280;59810;48.800;9.086;2023-02-13T08:04:44;99583.56;;;-0.52;94.95
71938;BME280;59810;48.800;9.086;2023-02-13T08:07:10;99589.44;;;-0.27;99.44
71938;BME280;59810;48.800;9.086;2023-02-13T08:09:38;99579.19;;;0.68;100.00
71938;BME280;59810;48.800;9.086;2023-02-13T08:12:22;99582.84;;;0.67;100.00
71938;BME280;59810;48.800;9.086;2023-02-13T08:14:47;99584.47;;;0.39;97.21
71938;BME280;59810;48.800;9.086;2023-02-13T08:17:13;99585.44;;;0.38;98.87
71938;BME280;59810;48.800;9.086;2023-02-13T08:19:38;99577.84;;;0.23;95.33
71938;BME280;59810;48.800;9.086;2023-02-13T08:22:06;99591.41;;;0.20;93.44
71938;BME280;59810;48.800;9.086;2023-02-13T08:24:32;99588.34;;;0.25;93.66
71938;BME280;59810;48.800;9.086;2023-02-13T08:26:59;99583.44;;;0.30;93.83
71938;BME280;59810;48.800;9.086;2023-02-13T08:29:24;99582.94;;;0.36;93.81
71938;BME280;59810;48.800;9.086;2023-02-13T08:31:50;99583.50;;;0.40;93.68
71938;BME280;59810;48.800;9.086;2023-02-13T08:34:18;99576.22;;;0.42;93.20
71938;BME280;59810;48.800;9.086;2023-02-13T08:36:43;99579.44;;;0.45;94.52
71938;BME280;59810;48.800;9.086;2023-02-13T08:39:09;99571.06;;;0.50;94.61
71938;BME280;59810;48.800;9.086;2023-02-13T08:41:34;99566.31;;;0.53;95.09
71938;BME280;59810;48.800;9.086;2023-02-13T08:44:00;99566.59;;;0.60;95.41
71938;BME280;59810;48.800;9.086;2023-02-13T08:46:25;99571.09;;;0.69;95.71
71938;BME280;59810;48.800;9.086;2023-02-13T08:48:51;99561.16;;;0.81;96.47
71938;BME280;59810;48.800;9.086;2023-02-13T08:51:16;99560.56;;;0.87;96.36
71938;BME280;59810;48.800;9.086;2023-02-13T08:53:42;99563.38;;;0.95;96.43
71938;BME280;59810;48.800;9.086;2023-02-13T08:56:07;99560.88;;;1.03;96.14
71938;BME280;59810;48.800;9.086;2023-02-13T08:58:33;99561.81;;;1.12;96.06
71938;BME280;59810;48.800;9.086;2023-02-13T09:00:58;99571.47;;;1.22;96.30
71938;BME280;59810;48.800;9.086;2023-02-13T09:03:24;99569.63;;;1.33;96.70
71938;BME280;59810;48.800;9.086;2023-02-13T09:05:51;99567.94;;;1.41;96.62
71938;BME280;59810;48.800;9.086;2023-02-13T09:08:17;99565.22;;;1.51;96.79
71938;BME280;59810;48.800;9.086;2023-02-13T09:10:42;99571.25;;;1.63;96.65
71938;BME280;59810;48.800;9.086;2023-02-13T09:13:08;99567.00;;;1.70;96.40
71938;BME280;59810;48.800;9.086;2023-02-13T09:15:37;99567.81;;;1.80;96.31
71938;BME280;59810;48.800;9.086;2023-02-13T09:18:06;99570.41;;;1.90;96.13
71938;BME280;59810;48.800;9.086;2023-02-13T09:20:32;99559.06;;;1.97;96.06
71938;BME280;59810;48.800;9.086;2023-02-13T09:22:57;99567.53;;;2.10;95.69
71938;BME280;59810;48.800;9.086;2023-02-13T09:25:22;99564.50;;;2.23;95.44
71938;BME280;59810;48.800;9.086;2023-02-13T09:27:50;99567.81;;;2.35;94.62
71938;BME280;59810;48.800;9.086;2023-02-13T09:30:15;99571.41;;;2.43;94.65
71938;BME280;59810;48.800;9.086;2023-02-13T09:32:48;99571.13;;;2.64;92.83
71938;BME280;59810;48.800;9.086;2023-02-13T09:35:13;99568.22;;;2.75;91.93
71938;BME280;59810;48.800;9.086;2023-02-13T09:37:41;99562.34;;;2.90;89.09
71938;BME280;59810;48.800;9.086;2023-02-13T09:41:04;99563.44;;;2.97;89.62
71938;BME280;59810;48.800;9.086;2023-02-13T09:43:26;99566.38;;;3.11;86.93
71938;BME280;59810;48.800;9.086;2023-02-13T09:45:57;99571.25;;;3.16;87.57
71938;BME280;59810;48.800;9.086;2023-02-13T09:48:30;99572.31;;;3.23;87.84
71938;BME280;59810;48.800;9.086;2023-02-13T09:50:57;99573.75;;;3.35;87.04
71938;BME280;59810;48.800;9.086;2023-02-13T09:53:24;99572.16;;;3.51;85.37
71938;BME280;59810;48.800;9.086;2023-02-13T09:56:04;99575.44;;;3.62;84.75
71938;BME280;59810;48.800;9.086;2023-02-13T09:58:43;99579.50;;;3.74;84.68
71938;BME280;59810;48.800;9.086;2023-02-13T10:01:46;99571.72;;;3.89;83.91
71938;BME280;59810;48.800;9.086;2023-02-13T10:04:26;99578.13;;;3.96;84.09
71938;BME280;59810;48.800;9.086;2023-02-13T10:07:35;99577.66;;;4.01;83.73
71938;BME280;59810;48.800;9.086;2023-02-13T10:10:21;99578.50;;;4.10;82.26
71938;BME280;59810;48.800;9.086;2023-02-13T10:18:13;99575.94;;;4.34;81.97
71938;BME280;59810;48.800;9.086;2023-02-13T10:20:46;99576.63;;;4.44;79.72
71938;BME280;59810;48.800;9.086;2023-02-13T10:24:19;99571.47;;;4.51;79.21
71938;BME280;59810;48.800;9.086;2023-02-13T10:26:41;99574.84;;;4.61;80.19
71938;BME280;59810;48.800;9.086;2023-02-13T10:29:22;99572.19;;;4.69;80.29
71938;BME280;59810;48.800;9.086;2023-02-13T10:32:12;99574.88;;;4.85;78.81
71938;BME280;59810;48.800;9.086;2023-02-13T10:34:44;99567.38;;;4.89;77.78
71938;BME280;59810;48.800;9.086;2023-02-13T10:37:18;99564.03;;;4.95;78.32
71938;BME280;59810;48.800;9.086;2023-02-13T10:39:46;99563.03;;;5.04;77.66
71938;BME280;59810;48.800;9.086;2023-02-13T11:01:10;99551.44;;;6.16;80.48
71938;BME280;59810;48.800;9.086;2023-02-13T11:03:40;99544.75;;;6.20;75.32
71938;BME280;59810;48.800;9.086;2023-02-13T11:06:07;99543.38;;;6.24;73.66
71938;BME280;59810;48.800;9.086;2023-02-13T11:08:38;99540.78;;;6.39;73.70
71938;BME280;59810;48.800;9.086;2023-02-13T11:11:34;99541.56;;;6.47;71.12
71938;BME280;59810;48.800;9.086;2023-02-13T11:14:24;99534.31;;;6.56;70.06
71938;BME280;59810;48.800;9.086;2023-02-13T11:19:23;99541.25;;;6.73;70.12
71938;BME280;59810;48.800;9.086;2023-02-13T11:21:53;99537.47;;;6.82;68.60
71938;BME280;59810;48.800;9.086;2023-02-13T11:24:23;99534.75;;;6.91;67.34
71938;BME280;59810;48.800;9.086;2023-02-13T11:27:02;99531.09;;;7.06;68.53
71938;BME280;59810;48.800;9.086;2023-02-13T11:29:34;99538.75;;;7.17;68.49
71938;BME280;59810;48.800;9.086;2023-02-13T11:34:38;99530.91;;;7.45;67.04
71938;BME280;59810;48.800;9.086;2023-02-13T11:37:17;99527.69;;;7.50;66.53
71938;BME280;59810;48.800;9.086;2023-02-13T11:39:45;99529.19;;;7.67;66.81
71938;BME280;59810;48.800;9.086;2023-02-13T11:42:15;99525.00;;;7.79;66.12
71938;BME280;59810;48.800;9.086;2023-02-13T11:44:49;99529.38;;;7.95;66.55
71938;BME280;59810;48.800;9.086;2023-02-13T11:47:29;99526.47;;;8.11;65.46
71938;BME280;59810;48.800;9.086;2023-02-13T11:49:55;99521.47;;;8.23;64.78
71938;BME280;59810;48.800;9.086;2023-02-13T11:52:27;99520.44;;;8.39;65.58
71938;BME280;59810;48.800;9.086;2023-02-13T11:54:59;99517.00;;;8.30;63.59
71938;BME280;59810;48.800;9.086;2023-02-13T11:57:32;99520.69;;;8.44;64.03
71938;BME280;59810;48.800;9.086;2023-02-13T12:00:00;99519.00;;;8.58;63.52
71938;BME280;59810;48.800;9.086;2023-02-13T12:02:31;99519.25;;;8.63;63.51
71938;BME280;59810;48.800;9.086;2023-02-13T12:05:15;99520.69;;;8.80;63.21
71938;BME280;59810;48.800;9.086;2023-02-13T12:07:41;99522.22;;;8.68;62.45
71938;BME280;59810;48.800;9.086;2023-02-13T12:10:26;99512.88;;;8.85;63.50
71938;BME280;59810;48.800;9.086;2023-02-13T12:15:35;99519.59;;;9.17;62.13
71938;BME280;59810;48.800;9.086;2023-02-13T12:20:32;99521.59;;;9.36;60.05
71938;BME280;59810;48.800;9.086;2023-02-13T12:23:11;99509.31;;;9.55;59.55
71938;BME280;59810;48.800;9.086;2023-02-13T12:25:53;99515.97;;;9.59;59.69
71938;BME280;59810;48.800;9.086;2023-02-13T12:29:00;99512.03;;;9.96;58.68
71938;BME280;59810;48.800;9.086;2023-02-13T12:44:45;99517.97;;;10.20;56.63
71938;BME280;59810;48.800;9.086;2023-02-13T12:47:24;99501.50;;;10.43;55.37
71938;BME280;59810;48.800;9.086;2023-02-13T12:50:08;99499.22;;;10.46;55.43
71938;BME280;59810;48.800;9.086;2023-02-13T13:06:36;99491.22;;;11.19;54.44
71938;BME280;59810;48.800;9.086;2023-02-13T13:15:20;99494.72;;;10.86;55.48
71938;BME280;59810;48.800;9.086;2023-02-13T13:20:51;99493.09;;;11.18;57.35
71938;BME280;59810;48.800;9.086;2023-02-13T13:28:38;99488.50;;;11.19;55.27
71938;BME280;59810;48.800;9.086;2023-02-13T13:31:06;99483.66;;;11.67;56.59
71938;BME280;59810;48.800;9.086;2023-02-13T13:33:35;99484.22;;;12.02;55.98
71938;BME280;59810;48.800;9.086;2023-02-13T13:36:15;99482.78;;;12.06;51.59
71938;BME280;59810;48.800;9.086;2023-02-13T13:49:34;99476.97;;;11.96;52.42
71938;BME280;59810;48.800;9.086;2023-02-13T13:52:19;99477.47;;;11.01;52.81
71938;BME280;59810;48.800;9.086;2023-02-13T13:54:47;99478.34;;;11.08;55.43
71938;BME280;59810;48.800;9.086;2023-02-13T13:57:24;99478.31;;;11.01;53.57
71938;BME280;59810;48.800;9.086;2023-02-13T13:59:59;99479.84;;;10.36;55.05
71938;BME280;59810;48.800;9.086;2023-02-13T14:02:35;99482.59;;;10.49;56.66
71938;BME280;59810;48.800;9.086;2023-02-13T14:05:28;99477.25;;;10.96;54.26
71938;BME280;59810;48.800;9.086;2023-02-13T14:08:02;99478.94;;;11.16;53.94
71938;BME280;59810;48.800;9.086;2023-02-13T14:23:11;99479.34;;;10.80;53.10
71938;BME280;59810;48.800;9.086;2023-02-13T14:25:41;99475.13;;;10.45;54.58
71938;BME280;59810;48.800;9.086;2023-02-13T14:28:20;99483.50;;;10.76;54.01
71938;BME280;59810;48.800;9.086;2023-02-13T14:30:48;99475.81;;;10.86;53.11
71938;BME280;59810;48.800;9.086;2023-02-13T14:33:24;99491.16;;;10.73;54.18
71938;BME280;59810;48.800;9.086;2023-02-13T14:36:20;99487.59;;;10.59;54.64
71938;BME280;59810;48.800;9.086;2023-02-13T14:38:55;99478.88;;;10.70;55.36
71938;BME280;59810;48.800;9.086;2023-02-13T14:44:24;99478.88;;;10.64;53.63
71938;BME280;59810;48.800;9.086;2023-02-13T14:46:51;99486.75;;;10.52;54.00
71938;BME280;59810;48.800;9.086;2023-02-13T14:49:34;99478.38;;;10.34;54.66
71938;BME280;59810;48.800;9.086;2023-02-13T14:52:06;99480.31;;;10.46;54.68
71938;BME280;59810;48.800;9.086;2023-02-13T14:54:45;99474.50;;;10.49;54.82
71938;BME280;59810;48.800;9.086;2023-02-13T14:57:22;99467.84;;;10.52;54.55
71938;BME280;59810;48.800;9.086;2023-02-13T14:59:55;99471.38;;;10.46;55.25
71938;BME280;59810;48.800;9.086;2023-02-13T15:02:27;99473.41;;;10.31;55.67
71938;BME280;59810;48.800;9.086;2023-02-13T15:05:09;99466.19;;;10.44;54.77
71938;BME280;59810;48.800;9.086;2023-02-13T15:07:43;99463.88;;;10.41;54.96
71938;BME280;59810;48.800;9.086;2023-02-13T15:13:23;99466.75;;;9.85;56.72
71938;BME280;59810;48.800;9.086;2023-02-13T15:15:55;99460.03;;;9.75;57.33
71938;BME280;59810;48.800;9.086;2023-02-13T15:18:26;99464.91;;;9.51;57.41
71938;BME280;59810;48.800;9.086;2023-02-13T15:20:54;99458.63;;;9.44;57.79
71938;BME280;59810;48.800;9.086;2023-02-13T15:23:25;99462.16;;;9.17;58.99
71938;BME280;59810;48.800;9.086;2023-02-13T15:26:00;99454.97;;;9.02;59.86
71938;BME280;59810;48.800;9.086;2023-02-13T15:28:26;99443.47;;;8.87;60.18
71938;BME280;59810;48.800;9.086;2023-02-13T15:31:22;99444.81;;;8.77;60.79
71938;BME280;59810;48.800;9.086;2023-02-13T15:37:19;99447.91;;;8.52;61.50
71938;BME280;59810;48.800;9.086;2023-02-13T15:40:14;99450.00;;;8.35;61.73
71938;BME280;59810;48.800;9.086;2023-02-13T15:42:59;99447.91;;;8.16;62.18